Time;durP1;ratioP1;P1;durP2;ratioP2;P2;SDS_P1;SDS_P2;PMS_P1;PMS_P2;Temp;Humidity;BMP_temperature;BMP_pressure;BME280_temperature;BME280_humidity;BME280_pressure;Samples;Min_cycle;Max_cycle;Signal;HPM_P1;HPM_P2
2021/09/24 00:00:01;;;;;;;10.17;5.60;;;13.20;97.80;;;;;;5022746;28;20174;-80
2021/09/24 00:02:26;;;;;;;8.13;4.70;;;13.20;97.60;;;;;;5021837;28;20409;-80
2021/09/24 00:04:52;;;;;;;9.27;4.97;;;13.20;97.70;;;;;;5022795;28;20712;-80
2021/09/24 00:07:18;;;;;;;13.70;4.20;;;13.20;97.90;;;;;;5022196;28;20682;-80
2021/09/24 00:09:44;;;;;;;9.40;4.40;;;13.20;97.70;;;;;;5021636;28;20169;-80
2021/09/24 00:12:10;;;;;;;8.77;4.07;;;13.20;97.50;;;;;;5021371;28;20176;-80
2021/09/24 00:14:36;;;;;;;9.98;5.45;;;13.20;97.40;;;;;;5021564;28;20408;-80
2021/09/24 00:17:02;;;;;;;9.83;4.93;;;13.10;97.40;;;;;;5021241;28;20244;-80
2021/09/24 00:19:27;;;;;;;9.83;4.97;;;13.10;97.10;;;;;;5020614;28;20935;-80
2021/09/24 00:21:53;;;;;;;9.80;5.33;;;13.10;97.40;;;;;;5022254;28;20417;-81
2021/09/24 00:24:19;;;;;;;10.13;4.80;;;13.10;97.70;;;;;;5020904;28;20499;-80
2021/09/24 00:26:45;;;;;;;9.83;5.33;;;13.10;98.00;;;;;;5021354;28;20460;-80
2021/09/24 00:29:10;;;;;;;9.30;5.73;;;13.00;98.50;;;;;;5020765;28;20217;-80
2021/09/24 00:31:36;;;;;;;14.90;5.80;;;13.10;98.70;;;;;;5077957;23;20631;-81
2021/09/24 00:34:02;;;;;;;9.93;4.80;;;13.00;98.80;;;;;;5002158;28;20179;-81
2021/09/24 00:36:28;;;;;;;10.87;5.20;;;13.10;98.50;;;;;;5001191;28;20209;-81
2021/09/24 00:38:56;;;;;;;15.63;5.03;;;13.00;98.50;;;;;;5001182;28;20417;-81
2021/09/24 00:41:22;;;;;;;14.40;6.40;;;13.00;98.70;;;;;;5001546;28;20181;-81
2021/09/24 00:43:47;;;;;;;9.47;4.93;;;13.00;99.00;;;;;;5004160;28;20202;-81
2021/09/24 00:46:13;;;;;;;9.50;5.10;;;12.90;99.10;;;;;;5005388;28;20202;-81
2021/09/24 00:48:39;;;;;;;9.93;5.40;;;12.90;99.10;;;;;;5005779;28;20171;-81
2021/09/24 00:51:05;;;;;;;13.80;6.20;;;12.90;99.00;;;;;;5005617;28;20205;-81
2021/09/24 00:53:31;;;;;;;9.20;5.80;;;12.90;98.90;;;;;;5006020;28;20471;-81
2021/09/24 00:55:59;;;;;;;10.60;5.78;;;12.90;99.00;;;;;;5005293;28;20453;-81
2021/09/24 00:58:25;;;;;;;12.50;6.28;;;12.90;99.10;;;;;;5005385;28;20174;-81
2021/09/24 01:00:50;;;;;;;10.00;5.35;;;12.90;98.90;;;;;;5005943;28;20175;-81
2021/09/24 01:03:16;;;;;;;15.60;7.00;;;12.80;99.10;;;;;;5022639;28;20218;-81
2021/09/24 01:05:42;;;;;;;17.80;7.43;;;12.80;99.10;;;;;;5004787;28;20198;-81
2021/09/24 01:08:08;;;;;;;13.90;6.37;;;12.80;99.10;;;;;;5006049;28;20224;-81
2021/09/24 01:10:34;;;;;;;14.35;6.70;;;12.70;99.10;;;;;;5005947;28;20174;-81
2021/09/24 01:13:01;;;;;;;13.55;5.15;;;12.70;99.10;;;;;;5004588;28;20174;-81
2021/09/24 01:15:27;;;;;;;10.93;5.70;;;12.70;99.10;;;;;;5003655;28;20205;-81
2021/09/24 01:17:52;;;;;;;10.77;5.40;;;12.70;99.10;;;;;;5004883;28;20234;-81
2021/09/24 01:20:20;;;;;;;13.77;6.40;;;12.70;99.10;;;;;;5004426;28;20413;-81
2021/09/24 01:22:51;;;;;;;9.82;5.20;;;12.70;99.10;;;;;;5005247;28;20456;-81
2021/09/24 01:25:19;;;;;;;9.32;4.68;;;12.70;99.10;;;;;;5005059;28;20198;-81
2021/09/24 01:27:45;;;;;;;11.10;5.10;;;12.70;99.10;;;;;;5004228;28;20170;-81
2021/09/24 01:30:12;;;;;;;9.00;4.80;;;12.70;99.10;;;;;;5004343;28;20166;-81
2021/09/24 01:32:38;;;;;;;12.05;5.75;;;12.70;98.60;;;;;;5004283;28;20192;-81
2021/09/24 01:35:07;;;;;;;9.70;4.93;;;12.70;99.00;;;;;;5003883;28;20198;-81
2021/09/24 01:37:34;;;;;;;10.10;5.55;;;12.70;99.10;;;;;;5003601;28;20209;-81
2021/09/24 01:40:00;;;;;;;10.98;4.93;;;12.60;99.10;;;;;;5004336;28;20647;-81
2021/09/24 01:42:27;;;;;;;9.63;5.07;;;12.60;99.10;;;;;;5004686;28;20181;-81
2021/09/24 01:44:52;;;;;;;9.00;5.38;;;12.70;98.90;;;;;;5005590;28;20170;-81
2021/09/24 01:47:19;;;;;;;14.67;5.37;;;12.70;98.70;;;;;;5005634;28;20198;-81
2021/09/24 01:49:45;;;;;;;12.23;6.60;;;12.60;99.10;;;;;;5006103;28;20472;-81
2021/09/24 01:52:11;;;;;;;12.45;6.65;;;12.60;99.10;;;;;;5005467;28;20174;-81
2021/09/24 01:54:36;;;;;;;9.60;5.03;;;12.60;99.10;;;;;;5003128;28;20654;-81
2021/09/24 01:57:02;;;;;;;14.53;5.77;;;12.60;99.10;;;;;;5002442;28;20474;-81
2021/09/24 01:59:28;;;;;;;7.23;4.33;;;12.50;99.10;;;;;;5002793;28;20425;-81
2021/09/24 02:01:54;;;;;;;8.47;5.07;;;12.50;99.10;;;;;;5002623;28;20760;-81
2021/09/24 02:04:20;;;;;;;11.90;5.23;;;12.50;99.10;;;;;;5002244;28;20206;-81
2021/09/24 02:06:47;;;;;;;8.07;4.60;;;12.50;99.10;;;;;;5001985;28;20222;-80
2021/09/24 02:09:13;;;;;;;13.77;6.32;;;12.40;99.10;;;;;;5001749;28;20182;-81
2021/09/24 02:11:39;;;;;;;13.45;6.25;;;12.40;99.10;;;;;;5001690;28;20185;-81
2021/09/24 02:14:05;;;;;;;15.23;6.53;;;12.40;99.10;;;;;;5001412;28;20642;-81
2021/09/24 02:16:31;;;;;;;11.40;7.07;;;12.50;99.10;;;;;;5002430;28;20811;-81
2021/09/24 02:18:57;;;;;;;11.77;6.05;;;12.50;99.10;;;;;;5001531;28;20603;-80
2021/09/24 02:21:23;;;;;;;16.73;6.70;;;12.50;99.10;;;;;;5001110;28;20174;-81
2021/09/24 02:23:49;;;;;;;17.70;5.28;;;12.50;99.10;;;;;;5000848;28;20217;-81
2021/09/24 02:26:15;;;;;;;12.63;5.93;;;12.50;99.10;;;;;;5000791;28;20213;-82
2021/09/24 02:28:42;;;;;;;8.60;5.33;;;12.50;99.10;;;;;;5000919;28;20415;-81
2021/09/24 02:31:12;;;;;;;10.57;5.60;;;12.50;99.10;;;;;;5001161;28;20429;-82
2021/09/24 02:33:39;;;;;;;11.77;6.00;;;12.50;99.10;;;;;;5001376;28;20194;-81
2021/09/24 02:36:06;;;;;;;13.30;6.35;;;12.40;99.10;;;;;;5001208;28;20615;-81
2021/09/24 02:38:33;;;;;;;15.80;6.63;;;12.40;99.10;;;;;;5001047;28;20201;-81
2021/09/24 02:40:59;;;;;;;18.60;7.30;;;12.50;99.10;;;;;;5002469;28;20175;-81
2021/09/24 02:43:25;;;;;;;15.85;5.35;;;12.40;99.10;;;;;;5001442;28;20202;-80
2021/09/24 02:45:52;;;;;;;15.40;6.77;;;12.40;99.10;;;;;;5001393;28;20730;-81
2021/09/24 02:48:17;;;;;;;13.93;5.60;;;12.50;99.10;;;;;;5001457;28;20412;-80
2021/09/24 02:50:43;;;;;;;14.87;6.90;;;12.40;99.10;;;;;;5001432;28;20170;-81
2021/09/24 02:53:09;;;;;;;12.13;6.47;;;12.40;99.10;;;;;;5000483;28;20421;-81
2021/09/24 02:55:35;;;;;;;15.60;6.00;;;12.30;99.10;;;;;;5000668;28;20434;-81
2021/09/24 02:58:01;;;;;;;9.80;5.47;;;12.40;99.10;;;;;;5001133;28;20576;-81
2021/09/24 03:00:27;;;;;;;14.40;6.20;;;12.40;99.10;;;;;;5001102;28;20414;-80
2021/09/24 03:02:53;;;;;;;11.80;6.43;;;12.40;99.10;;;;;;5000752;28;20453;-81
2021/09/24 03:05:22;;;;;;;14.40;5.68;;;12.30;99.10;;;;;;5000571;28;20457;-81
2021/09/24 03:07:47;;;;;;;12.48;5.38;;;12.30;99.10;;;;;;4999394;28;20316;-81
2021/09/24 03:10:13;;;;;;;9.10;5.20;;;12.30;99.10;;;;;;5000433;28;20193;-81
2021/09/24 03:12:40;;;;;;;15.00;6.70;;;12.30;99.10;;;;;;5000912;28;20443;-81
2021/09/24 03:15:08;;;;;;;11.50;6.30;;;12.30;99.10;;;;;;5000100;28;20436;-81
2021/09/24 03:17:33;;;;;;;15.48;7.78;;;12.30;99.10;;;;;;5000723;28;20195;-81
2021/09/24 03:19:59;;;;;;;13.80;5.93;;;12.40;99.10;;;;;;5000576;28;20166;-81
2021/09/24 03:22:25;;;;;;;12.73;6.10;;;12.40;99.10;;;;;;4999988;28;20811;-81
2021/09/24 03:24:51;;;;;;;13.90;5.73;;;12.40;99.10;;;;;;5000224;28;20539;-81
2021/09/24 03:27:17;;;;;;;10.82;5.90;;;12.40;99.10;;;;;;5000278;28;20198;-81
2021/09/24 03:29:43;;;;;;;9.30;5.38;;;12.40;99.10;;;;;;5000011;28;20170;-81
2021/09/24 03:32:09;;;;;;;11.17;5.73;;;12.30;99.10;;;;;;4999525;28;20228;-81
2021/09/24 03:34:34;;;;;;;11.10;5.57;;;12.40;99.10;;;;;;4999754;28;20186;-81
2021/09/24 03:37:00;;;;;;;10.10;5.30;;;12.30;99.10;;;;;;4999899;28;20437;-81
2021/09/24 03:39:26;;;;;;;12.13;6.70;;;12.40;99.10;;;;;;4999773;28;20186;-81
2021/09/24 03:41:54;;;;;;;13.43;6.67;;;12.30;99.10;;;;;;5018595;28;20414;-81
2021/09/24 03:44:20;;;;;;;12.60;5.55;;;12.30;99.10;;;;;;5000303;28;20210;-81
2021/09/24 03:46:46;;;;;;;17.17;6.28;;;12.20;99.10;;;;;;5000517;28;20218;-80
2021/09/24 03:49:12;;;;;;;15.63;7.25;;;12.30;99.10;;;;;;4999805;28;20260;-81
2021/09/24 03:51:38;;;;;;;16.13;7.10;;;12.30;99.10;;;;;;4999419;28;20209;-81
2021/09/24 03:54:05;;;;;;;17.40;7.50;;;12.20;99.10;;;;;;4999112;28;20448;-81
2021/09/24 03:56:31;;;;;;;20.42;7.25;;;12.20;99.10;;;;;;4999165;28;20198;-81
2021/09/24 03:58:56;;;;;;;16.73;6.55;;;12.10;99.10;;;;;;4998570;28;20190;-81
2021/09/24 04:01:22;;;;;;;14.07;7.10;;;12.00;99.10;;;;;;4999634;28;20170;-81
2021/09/24 04:03:48;;;;;;;9.20;6.30;;;12.00;99.10;;;;;;4999431;28;20479;-80
2021/09/24 04:06:14;;;;;;;14.23;6.70;;;12.00;99.10;;;;;;4998940;28;20726;-81
2021/09/24 04:08:39;;;;;;;14.20;6.70;;;12.00;99.10;;;;;;4999147;28;20701;-81
2021/09/24 04:11:06;;;;;;;18.07;7.77;;;12.10;99.10;;;;;;4998934;28;20435;-81
2021/09/24 04:13:32;;;;;;;14.40;6.35;;;12.10;99.10;;;;;;4999522;28;20201;-81
2021/09/24 04:15:57;;;;;;;15.35;7.15;;;12.10;99.10;;;;;;4998700;28;20755;-81
2021/09/24 04:18:23;;;;;;;13.97;7.27;;;12.10;99.10;;;;;;5002044;28;20170;-81
2021/09/24 04:20:49;;;;;;;11.13;6.10;;;12.20;99.10;;;;;;5002875;28;20175;-83
2021/09/24 04:23:15;;;;;;;11.95;6.60;;;12.10;99.10;;;;;;5002178;28;20269;-82
2021/09/24 04:25:44;;;;;;;12.93;6.38;;;12.10;99.10;;;;;;5003293;28;20587;-82
2021/09/24 04:28:10;;;;;;;13.75;6.68;;;12.10;99.10;;;;;;5003228;28;20171;-83
2021/09/24 04:30:36;;;;;;;14.40;7.07;;;12.00;99.10;;;;;;5002972;28;20195;-83
2021/09/24 04:33:01;;;;;;;12.20;6.73;;;12.00;99.10;;;;;;5002821;28;20162;-82
2021/09/24 04:35:27;;;;;;;14.47;6.50;;;11.90;99.10;;;;;;5003820;28;20541;-82
2021/09/24 04:37:53;;;;;;;10.93;6.90;;;11.90;99.10;;;;;;5002601;28;20225;-82
2021/09/24 04:40:21;;;;;;;12.30;6.23;;;11.90;99.10;;;;;;5002915;28;20544;-83
2021/09/24 04:42:47;;;;;;;13.70;7.35;;;11.80;99.10;;;;;;5002230;28;20476;-82
2021/09/24 04:45:13;;;;;;;18.03;7.40;;;11.80;99.10;;;;;;5003187;28;20174;-84
2021/09/24 04:47:39;;;;;;;19.90;8.10;;;11.90;99.10;;;;;;5002840;28;20177;-83
2021/09/24 04:50:06;;;;;;;11.73;6.43;;;11.90;99.10;;;;;;5003213;28;20917;-83
2021/09/24 04:52:32;;;;;;;10.52;5.78;;;11.80;99.10;;;;;;5003051;28;20413;-81
2021/09/24 04:54:58;;;;;;;11.38;6.40;;;11.80;99.10;;;;;;5002009;28;20173;-81
2021/09/24 04:57:24;;;;;;;13.60;6.05;;;11.90;99.10;;;;;;5020835;28;20167;-81
2021/09/24 04:59:49;;;;;;;16.07;6.90;;;11.90;99.10;;;;;;5002251;28;20262;-81
2021/09/24 05:02:18;;;;;;;24.83;7.47;;;12.00;99.10;;;;;;5002923;28;20174;-81
2021/09/24 05:04:44;;;;;;;17.73;6.97;;;11.90;99.10;;;;;;5002600;28;20668;-81
2021/09/24 05:07:10;;;;;;;19.50;7.80;;;11.90;99.10;;;;;;5002085;28;20193;-80
2021/09/24 05:09:36;;;;;;;20.30;9.00;;;11.90;99.10;;;;;;5002059;28;20401;-80
2021/09/24 05:12:03;;;;;;;17.30;7.68;;;11.80;99.10;;;;;;5001821;28;20173;-80
2021/09/24 05:14:29;;;;;;;17.10;7.65;;;11.80;99.10;;;;;;5001502;28;20237;-81
2021/09/24 05:16:54;;;;;;;15.25;7.85;;;11.80;99.10;;;;;;5001869;28;20741;-81
2021/09/24 05:19:21;;;;;;;21.60;7.60;;;11.90;99.10;;;;;;5002445;28;20171;-81
2021/09/24 05:21:47;;;;;;;13.95;7.43;;;11.90;99.10;;;;;;5002366;28;20189;-81
2021/09/24 05:24:12;;;;;;;20.88;8.15;;;11.90;99.10;;;;;;5002181;28;20203;-80
2021/09/24 05:26:38;;;;;;;16.63;7.53;;;12.00;99.10;;;;;;5001411;28;20561;-81
2021/09/24 05:29:04;;;;;;;18.23;8.57;;;12.00;99.10;;;;;;5000593;28;20428;-81
2021/09/24 05:31:32;;;;;;;14.98;6.43;;;12.00;99.10;;;;;;5002555;28;20195;-81
2021/09/24 05:33:57;;;;;;;17.65;8.68;;;12.00;99.10;;;;;;5003256;28;20225;-81
2021/09/24 05:36:23;;;;;;;15.43;7.73;;;11.90;99.10;;;;;;5003091;28;20194;-82
2021/09/24 05:38:49;;;;;;;19.30;7.50;;;11.90;99.10;;;;;;5003223;28;20421;-81
2021/09/24 05:41:15;;;;;;;21.10;6.67;;;12.00;99.10;;;;;;5002678;28;20574;-81
2021/09/24 05:43:41;;;;;;;16.05;6.95;;;12.00;99.10;;;;;;5002499;28;20453;-82
2021/09/24 05:46:09;;;;;;;22.70;7.30;;;12.10;99.10;;;;;;5002886;28;20248;-81
2021/09/24 05:48:35;;;;;;;18.15;9.25;;;12.10;99.10;;;;;;5002140;28;20421;-82
2021/09/24 05:51:02;;;;;;;16.00;8.63;;;12.20;99.10;;;;;;5002616;28;20340;-82
2021/09/24 05:53:28;;;;;;;19.55;8.80;;;12.20;99.10;;;;;;5002207;28;20185;-81
2021/09/24 05:55:55;;;;;;;14.23;7.05;;;12.20;99.10;;;;;;5002304;28;20823;-81
2021/09/24 05:58:22;;;;;;;16.92;6.25;;;12.30;99.10;;;;;;5002261;28;20174;-81
2021/09/24 06:00:48;;;;;;;17.10;7.68;;;12.30;99.10;;;;;;5002975;28;20213;-81
2021/09/24 06:03:14;;;;;;;15.68;7.47;;;12.30;99.10;;;;;;5003828;28;20203;-82
2021/09/24 06:05:40;;;;;;;28.60;8.70;;;12.30;99.10;;;;;;5001840;28;20252;-82
2021/09/24 06:08:06;;;;;;;17.33;8.18;;;12.30;99.10;;;;;;5000654;28;20186;-81
2021/09/24 06:10:32;;;;;;;21.20;7.95;;;12.40;99.10;;;;;;5002714;28;20201;-81
2021/09/24 06:12:58;;;;;;;26.27;8.27;;;12.50;99.10;;;;;;5002335;28;20174;-81
2021/09/24 06:15:25;;;;;;;16.77;7.47;;;12.60;99.10;;;;;;5002096;28;20213;-81
2021/09/24 06:17:51;;;;;;;18.70;7.60;;;12.60;99.10;;;;;;5002842;28;20457;-81
2021/09/24 06:20:18;;;;;;;13.05;6.85;;;12.60;99.10;;;;;;5003092;28;20175;-82
2021/09/24 06:22:45;;;;;;;18.17;8.18;;;12.70;99.10;;;;;;5003565;28;20751;-81
2021/09/24 06:25:12;;;;;;;20.95;8.57;;;12.70;99.10;;;;;;5002705;28;20647;-82
2021/09/24 06:27:38;;;;;;;18.05;8.05;;;12.70;99.10;;;;;;5002574;28;20250;-82
2021/09/24 06:30:07;;;;;;;22.30;7.70;;;12.80;99.10;;;;;;5003183;28;20213;-81
2021/09/24 06:32:33;;;;;;;24.60;8.25;;;12.80;99.10;;;;;;4999336;28;20202;-79
2021/09/24 06:34:59;;;;;;;16.33;7.75;;;12.90;99.10;;;;;;4998440;28;20202;-78
2021/09/24 06:37:28;;;;;;;17.13;8.67;;;12.90;99.10;;;;;;4998495;28;20651;-80
2021/09/24 06:39:54;;;;;;;23.85;8.20;;;13.00;99.10;;;;;;4998367;28;20253;-79
2021/09/24 06:42:20;;;;;;;20.13;8.20;;;13.10;99.10;;;;;;4998279;28;20221;-79
2021/09/24 06:44:46;;;;;;;16.98;7.85;;;13.20;99.10;;;;;;4998774;28;20194;-79
2021/09/24 06:47:15;;;;;;;24.15;8.32;;;13.20;99.10;;;;;;4998291;28;20197;-79
2021/09/24 06:49:43;;;;;;;17.70;7.72;;;13.30;99.00;;;;;;4982498;28;20198;-80
2021/09/24 06:52:09;;;;;;;20.33;8.55;;;13.40;98.90;;;;;;4998425;28;20175;-79
2021/09/24 06:54:34;;;;;;;26.45;8.27;;;13.40;98.90;;;;;;4998060;28;20182;-79
2021/09/24 06:57:04;;;;;;;16.37;7.63;;;13.50;98.60;;;;;;4998137;28;20614;-79
2021/09/24 06:59:30;;;;;;;18.75;8.00;;;13.60;98.60;;;;;;4997998;28;20419;-79
2021/09/24 07:01:56;;;;;;;20.67;7.63;;;13.70;98.40;;;;;;4998188;28;20774;-80
2021/09/24 07:04:22;;;;;;;47.45;8.95;;;13.80;98.40;;;;;;4997710;28;20492;-80
2021/09/24 07:06:48;;;;;;;14.70;7.50;;;13.90;97.90;;;;;;4997944;28;20202;-79
2021/09/24 07:09:15;;;;;;;20.10;7.80;;;13.90;97.80;;;;;;4998724;28;20425;-80
2021/09/24 07:11:42;;;;;;;13.95;7.47;;;14.10;97.30;;;;;;4997516;28;20177;-79
2021/09/24 07:14:12;;;;;;;15.82;7.60;;;14.20;97.30;;;;;;4997336;28;20185;-79
2021/09/24 07:16:38;;;;;;;18.52;8.85;;;14.30;97.10;;;;;;4997593;28;20205;-80
2021/09/24 07:19:06;;;;;;;24.70;8.40;;;14.30;97.10;;;;;;4997356;28;20178;-79
2021/09/24 07:21:32;;;;;;;20.52;9.23;;;14.40;96.90;;;;;;4997235;28;20185;-80
2021/09/24 07:23:59;;;;;;;15.98;7.65;;;14.40;96.30;;;;;;4997127;28;20678;-79
2021/09/24 07:26:26;;;;;;;19.67;8.32;;;14.60;96.30;;;;;;4997225;28;20201;-79
2021/09/24 07:28:53;;;;;;;20.10;9.52;;;14.60;96.50;;;;;;4997222;28;20265;-79
2021/09/24 07:31:19;;;;;;;22.65;8.75;;;14.70;96.00;;;;;;4997802;28;20224;-79
2021/09/24 07:33:44;;;;;;;29.33;10.10;;;14.80;96.40;;;;;;4996957;28;20171;-79
2021/09/24 07:36:11;;;;;;;21.23;9.67;;;14.90;96.30;;;;;;4997213;28;20433;-80
2021/09/24 07:38:37;;;;;;;21.88;8.57;;;15.00;95.90;;;;;;4997262;28;20191;-79
2021/09/24 07:41:03;;;;;;;19.83;8.80;;;15.10;95.60;;;;;;4996781;28;20186;-79
2021/09/24 07:43:28;;;;;;;22.27;9.53;;;15.30;95.40;;;;;;4997012;28;20198;-80
2021/09/24 07:45:56;;;;;;;20.70;9.73;;;15.40;95.00;;;;;;4997566;28;20468;-79
2021/09/24 07:48:23;;;;;;;27.98;9.32;;;15.50;95.10;;;;;;4997083;28;20410;-79
2021/09/24 07:50:49;;;;;;;20.75;8.52;;;15.60;94.50;;;;;;4996954;28;20228;-79
2021/09/24 07:53:14;;;;;;;22.15;9.20;;;15.80;94.10;;;;;;4996445;28;20181;-80
2021/09/24 07:55:41;;;;;;;25.93;8.50;;;15.90;94.00;;;;;;4996561;28;20195;-80
2021/09/24 07:58:08;;;;;;;19.27;8.90;;;16.00;93.80;;;;;;4996691;28;20417;-79
2021/09/24 08:00:36;;;;;;;17.80;8.93;;;16.10;93.70;;;;;;4996905;28;20178;-79
2021/09/24 08:03:02;;;;;;;15.23;7.97;;;16.20;93.40;;;;;;4997003;28;20198;-79
2021/09/24 08:05:29;;;;;;;17.42;8.00;;;16.40;92.90;;;;;;4996409;28;20190;-80
2021/09/24 08:07:55;;;;;;;17.55;7.75;;;16.40;92.50;;;;;;4997398;28;20217;-80
2021/09/24 08:10:20;;;;;;;16.03;7.63;;;16.50;91.90;;;;;;4997206;28;20228;-80
2021/09/24 08:12:47;;;;;;;14.97;7.77;;;16.60;91.80;;;;;;4996765;28;20171;-79
2021/09/24 08:15:13;;;;;;;12.18;7.43;;;16.80;92.00;;;;;;4996727;28;20646;-80
2021/09/24 08:17:39;;;;;;;18.33;6.30;;;16.90;91.60;;;;;;4997198;28;20237;-79
2021/09/24 08:20:06;;;;;;;19.17;7.20;;;17.00;90.80;;;;;;4996830;28;20526;-80
2021/09/24 08:22:37;;;;;;;22.30;8.73;;;17.10;91.10;;;;;;4996518;28;20413;-80
2021/09/24 08:25:05;;;;;;;14.02;7.38;;;17.20;90.50;;;;;;4996192;28;20224;-80
2021/09/24 08:27:31;;;;;;;17.13;8.05;;;17.30;89.80;;;;;;4996392;28;20175;-80
2021/09/24 08:29:57;;;;;;;15.23;7.97;;;17.40;89.50;;;;;;4996550;28;20197;-80
2021/09/24 08:32:23;;;;;;;14.13;7.33;;;17.50;89.80;;;;;;4996723;28;20940;-79
2021/09/24 08:34:49;;;;;;;14.50;7.00;;;17.60;89.50;;;;;;4996317;28;20179;-80
2021/09/24 08:37:14;;;;;;;13.50;8.10;;;17.70;89.10;;;;;;4996680;28;20433;-79
2021/09/24 08:39:40;;;;;;;11.67;6.30;;;17.90;87.80;;;;;;4996243;28;20584;-80
2021/09/24 08:42:06;;;;;;;14.20;7.10;;;18.00;87.40;;;;;;4996020;28;20418;-80
2021/09/24 08:44:32;;;;;;;20.53;9.23;;;18.10;87.30;;;;;;4995918;28;20459;-80
2021/09/24 08:46:58;;;;;;;19.50;7.63;;;18.20;86.30;;;;;;4996107;28;20191;-80
2021/09/24 08:49:23;;;;;;;22.65;8.65;;;18.30;86.60;;;;;;4996395;28;20171;-79
2021/09/24 08:51:49;;;;;;;18.53;9.03;;;18.30;86.30;;;;;;4996058;28;20175;-80
2021/09/24 08:54:15;;;;;;;21.08;9.13;;;18.40;84.80;;;;;;4996211;28;20584;-80
2021/09/24 08:56:41;;;;;;;16.63;7.70;;;18.40;86.00;;;;;;4995621;28;20245;-79
2021/09/24 08:59:07;;;;;;;23.57;10.70;;;18.40;85.90;;;;;;4996059;28;20413;-79
2021/09/24 09:01:32;;;;;;;16.40;8.87;;;18.40;85.20;;;;;;4996354;28;20179;-80
2021/09/24 09:03:59;;;;;;;23.97;8.63;;;18.40;86.00;;;;;;4996600;28;20205;-80
2021/09/24 09:06:29;;;;;;;13.57;7.13;;;18.50;85.50;;;;;;4999378;28;20570;-80
2021/09/24 09:09:03;;;;;;;14.48;7.05;;;18.60;84.80;;;;;;4999409;28;20522;-80
2021/09/24 09:11:30;;;;;;;20.48;6.45;;;18.70;85.10;;;;;;4999871;28;20170;-79
2021/09/24 09:13:59;;;;;;;16.23;7.28;;;18.90;83.50;;;;;;4999523;28;20197;-79
2021/09/24 09:16:28;;;;;;;12.88;6.28;;;19.00;82.30;;;;;;4999404;28;20205;-80
2021/09/24 09:19:07;;;;;;;12.13;6.35;;;19.20;81.70;;;;;;4999086;28;20459;-79
2021/09/24 09:21:34;;;;;;;9.25;5.90;;;19.40;82.10;;;;;;4999487;28;20639;-80
2021/09/24 09:24:16;;;;;;;11.65;6.55;;;19.60;81.90;;;;;;4999302;28;20205;-80
2021/09/24 09:26:41;;;;;;;16.52;7.15;;;19.80;80.30;;;;;;5016833;28;20197;-80
2021/09/24 09:29:09;;;;;;;11.00;6.40;;;20.00;78.30;;;;;;4999341;28;20174;-80
2021/09/24 09:31:35;;;;;;;11.43;6.32;;;20.10;77.70;;;;;;4998763;28;20187;-79
2021/09/24 09:34:07;;;;;;;15.13;5.93;;;20.20;77.10;;;;;;4998621;28;20179;-79
2021/09/24 09:36:37;;;;;;;12.13;6.85;;;20.30;78.00;;;;;;4999322;28;20494;-79
2021/09/24 09:39:11;;;;;;;26.58;6.55;;;20.40;77.60;;;;;;4998972;28;20622;-80
2021/09/24 09:41:50;;;;;;;15.27;6.90;;;20.70;76.20;;;;;;4998685;28;20475;-80
2021/09/24 09:44:32;;;;;;;12.45;5.47;;;20.90;74.60;;;;;;4998871;28;20193;-80
2021/09/24 09:46:58;;;;;;;10.52;5.03;;;21.20;74.10;;;;;;4998842;28;20194;-80
2021/09/24 09:49:28;;;;;;;12.02;5.85;;;21.40;74.50;;;;;;4998582;28;20180;-80
2021/09/24 09:52:12;;;;;;;11.90;5.93;;;21.60;72.60;;;;;;4998349;28;20255;-79
2021/09/24 09:54:37;;;;;;;12.38;5.93;;;21.70;72.10;;;;;;4998844;28;20170;-80
2021/09/24 09:57:17;;;;;;;19.17;6.50;;;21.70;71.90;;;;;;4998498;28;20195;-81
2021/09/24 09:59:55;;;;;;;10.90;5.65;;;21.60;71.40;;;;;;4998964;28;20425;-80
2021/09/24 10:02:33;;;;;;;11.45;5.55;;;21.60;71.30;;;;;;4998677;28;20253;-79
2021/09/24 10:05:01;;;;;;;11.18;5.72;;;21.50;71.40;;;;;;4999236;28;20203;-80
2021/09/24 10:07:29;;;;;;;10.52;5.60;;;21.40;71.00;;;;;;4999292;28;20242;-80
2021/09/24 10:10:10;;;;;;;10.15;5.35;;;21.40;72.30;;;;;;5001556;28;20175;-81
2021/09/24 10:12:37;;;;;;;15.75;6.00;;;21.50;72.00;;;;;;5002020;28;20171;-80
2021/09/24 10:15:05;;;;;;;9.10;6.07;;;21.70;70.60;;;;;;5001291;28;20171;-79
2021/09/24 10:17:31;;;;;;;18.85;6.15;;;21.80;70.10;;;;;;5000083;28;20226;-80
2021/09/24 10:19:57;;;;;;;12.27;5.57;;;21.90;68.90;;;;;;5000828;28;20170;-80
2021/09/24 10:22:25;;;;;;;12.48;5.45;;;22.00;69.20;;;;;;5001051;28;20703;-80
2021/09/24 10:24:51;;;;;;;8.05;4.57;;;22.00;70.20;;;;;;5001086;28;20201;-80
2021/09/24 10:27:23;;;;;;;16.95;5.47;;;22.20;69.90;;;;;;5001460;28;20651;-80
2021/09/24 10:29:50;;;;;;;10.85;5.95;;;22.40;68.80;;;;;;5001896;28;20189;-80
2021/09/24 10:32:22;;;;;;;10.77;5.25;;;22.60;67.80;;;;;;5002782;28;20555;-80
2021/09/24 10:35:01;;;;;;;10.10;5.13;;;22.80;66.70;;;;;;5003062;28;20269;-80
2021/09/24 10:37:29;;;;;;;11.02;4.78;;;22.80;65.30;;;;;;5003034;28;20186;-80
2021/09/24 10:40:00;;;;;;;11.48;3.65;;;22.80;66.60;;;;;;5002289;28;20225;-81
2021/09/24 10:42:43;;;;;;;9.20;4.80;;;22.70;65.60;;;;;;5002832;28;20197;-80
2021/09/24 10:45:35;;;;;;;10.50;4.07;;;22.70;66.90;;;;;;5002176;28;20174;-80
2021/09/24 10:48:06;;;;;;;8.27;4.30;;;22.80;66.40;;;;;;5002761;28;20543;-81
2021/09/24 10:50:33;;;;;;;10.10;4.90;;;22.90;67.40;;;;;;5002492;28;20177;-81
2021/09/24 10:53:11;;;;;;;6.40;4.25;;;23.10;65.50;;;;;;5002088;28;20321;-81
2021/09/24 10:55:39;;;;;;;11.40;4.03;;;23.30;65.10;;;;;;5002820;28;20190;-81
2021/09/24 10:58:06;;;;;;;12.77;4.82;;;23.30;65.10;;;;;;5002666;28;20170;-80
2021/09/24 11:00:33;;;;;;;6.30;4.13;;;23.40;63.80;;;;;;5001570;28;20225;-81
2021/09/24 11:03:20;;;;;;;7.25;4.78;;;23.60;65.60;;;;;;5002497;28;20269;-81
2021/09/24 11:06:03;;;;;;;7.32;4.60;;;23.70;62.30;;;;;;5002947;28;20190;-81
2021/09/24 11:11:16;;;;;;;4.60;3.40;;;24.00;60.50;;;;;;5021603;28;20178;-80
2021/09/24 11:13:48;;;;;;;19.88;4.78;;;24.00;61.00;;;;;;5003241;28;20644;-82
2021/09/24 11:16:37;;;;;;;8.38;4.80;;;24.20;62.00;;;;;;5004409;28;20268;-79
2021/09/24 11:19:03;;;;;;;11.30;4.07;;;24.30;61.40;;;;;;5004998;28;20193;-79
2021/09/24 11:21:38;;;;;;;10.33;4.33;;;24.40;61.70;;;;;;5004318;28;20179;-79
2021/09/24 11:24:28;;;;;;;5.70;3.40;;;24.40;60.80;;;;;;5004331;28;20465;-79
2021/09/24 11:26:56;;;;;;;5.47;3.92;;;24.50;61.40;;;;;;5003580;28;20186;-81
2021/09/24 11:29:27;;;;;;;4.05;3.20;;;24.50;59.40;;;;;;5004923;28;20197;-80
2021/09/24 11:31:53;;;;;;;5.85;3.53;;;24.60;60.50;;;;;;5005365;28;20249;-81
2021/09/24 11:34:43;;;;;;;10.50;4.20;;;24.80;59.80;;;;;;5003744;28;20264;-81
2021/09/24 11:37:24;;;;;;;7.95;4.10;;;25.00;59.20;;;;;;5003326;28;20498;-80
2021/09/24 11:40:20;;;;;;;7.38;3.80;;;25.10;57.00;;;;;;5003688;28;20178;-79
2021/09/24 11:42:51;;;;;;;5.80;3.75;;;25.10;58.40;;;;;;4998717;28;20666;-78
2021/09/24 11:45:23;;;;;;;5.85;3.67;;;25.00;59.40;;;;;;5003769;28;20520;-79
2021/09/24 11:48:02;;;;;;;7.82;3.70;;;25.00;59.10;;;;;;5003294;28;20194;-79
2021/09/24 11:50:33;;;;;;;6.95;3.70;;;25.20;58.50;;;;;;5003245;28;20171;-79
2021/09/24 11:53:02;;;;;;;5.78;3.50;;;25.30;60.30;;;;;;5003595;28;20190;-79
2021/09/24 11:55:29;;;;;;;8.63;3.80;;;25.50;57.90;;;;;;5003956;28;20200;-80
2021/09/24 11:58:24;;;;;;;7.72;4.40;;;25.60;60.20;;;;;;5003604;28;20200;-80
2021/09/24 12:00:58;;;;;;;7.03;3.58;;;25.80;57.50;;;;;;5002035;28;20203;-79
2021/09/24 12:03:28;;;;;;;7.18;4.15;;;25.90;57.20;;;;;;5004204;28;20221;-78
2021/09/24 12:06:04;;;;;;;11.18;4.28;;;26.00;57.40;;;;;;5002874;28;20191;-79
2021/09/24 12:08:34;;;;;;;6.10;3.90;;;26.30;57.40;;;;;;5003637;28;20174;-79
2021/09/24 12:11:05;;;;;;;5.50;3.35;;;26.50;53.20;;;;;;5003936;28;20182;-79
2021/09/24 12:13:35;;;;;;;4.43;3.13;;;26.50;54.30;;;;;;5004135;28;20170;-79
2021/09/24 12:16:01;;;;;;;10.20;4.53;;;26.50;55.70;;;;;;4999939;28;20229;-78
2021/09/24 12:18:50;;;;;;;5.43;3.65;;;26.50;55.40;;;;;;5001300;28;20639;-79
2021/09/24 12:21:19;;;;;;;6.20;3.20;;;26.30;54.30;;;;;;5001677;28;20178;-78
2021/09/24 12:23:46;;;;;;;5.05;3.30;;;26.20;53.80;;;;;;5001618;28;20198;-78
2021/09/24 12:26:13;;;;;;;7.80;3.75;;;26.40;53.90;;;;;;4999959;28;20190;-79
2021/09/24 12:28:59;;;;;;;9.50;4.32;;;26.40;52.80;;;;;;5001085;28;20258;-79
2021/09/24 12:31:38;;;;;;;5.17;2.93;;;26.50;53.80;;;;;;5071020;23;20236;-76
2021/09/24 12:34:05;;;;;;;6.10;3.60;;;26.60;53.20;;;;;;4987127;28;20197;-79
2021/09/24 12:36:31;;;;;;;5.60;3.63;;;26.50;54.70;;;;;;5000884;28;20194;-78
2021/09/24 12:39:16;;;;;;;13.27;3.70;;;26.40;54.70;;;;;;5027012;28;20163;-78
2021/09/24 12:41:42;;;;;;;4.35;3.35;;;26.60;54.90;;;;;;5012143;28;20261;-81
2021/09/24 12:44:08;;;;;;;7.10;3.75;;;26.60;55.40;;;;;;5011755;28;20536;-81